OZW9214 YBLN-YPPH
Flight info
| Callsign | OZW9214 |
|---|---|
| Flight time | 0h 33m |
| Altitude | 15000 |
| Route | BLN W20 PH |
| Aircraft | A20N/M-SDE2E3FGHIRWXY/LB1 |
Departure
| Time | 2026-04-27 12:39 |
|---|---|
| Airport | Busselton Margaret River Regional Airport (YBLN) |
Arrival
| Time | 2026-04-27 13:12 |
|---|---|
| Airport | Perth International Airport (YPPH) |
| Time | Latitude | Longitude | Altitude | Speed | Heading |
|---|---|---|---|---|---|
| 2026-04-27 12:04 | -33.68554 | 115.39980 | 65 ft | 0 kts | 336° |
| 2026-04-27 12:29 | -33.68552 | 115.39981 | 65 ft | 0 kts | 356° |
| 2026-04-27 12:30 | -33.68546 | 115.39990 | 59 ft | 1 kts | 71° |
| 2026-04-27 12:30 | -33.68556 | 115.39999 | 57 ft | 3 kts | 154° |
| 2026-04-27 12:30 | -33.68558 | 115.39999 | 55 ft | 0 kts | 160° |
| 2026-04-27 12:33 | -33.68586 | 115.40011 | 58 ft | 8 kts | 163° |
| 2026-04-27 12:33 | -33.68654 | 115.40024 | 63 ft | 12 kts | 144° |
| 2026-04-27 12:33 | -33.68687 | 115.40099 | 58 ft | 0 kts | 112° |
| 2026-04-27 12:34 | -33.68696 | 115.40124 | 62 ft | 9 kts | 112° |
| 2026-04-27 12:34 | -33.68704 | 115.40218 | 66 ft | 14 kts | 54° |
| 2026-04-27 12:35 | -33.68609 | 115.40284 | 56 ft | 18 kts | 25° |
| 2026-04-27 12:35 | -33.68481 | 115.40356 | 62 ft | 22 kts | 25° |
| 2026-04-27 12:35 | -33.68331 | 115.40442 | 59 ft | 25 kts | 25° |
| 2026-04-27 12:35 | -33.68194 | 115.40520 | 58 ft | 21 kts | 25° |
| 2026-04-27 12:36 | -33.68053 | 115.40600 | 60 ft | 23 kts | 25° |
| 2026-04-27 12:36 | -33.67912 | 115.40682 | 62 ft | 21 kts | 26° |
| 2026-04-27 12:36 | -33.67779 | 115.40715 | 62 ft | 14 kts | 6° |
| 2026-04-27 12:36 | -33.67748 | 115.40758 | 58 ft | 1 kts | 124° |
| 2026-04-27 12:37 | -33.67772 | 115.40757 | 58 ft | 7 kts | 200° |
| 2026-04-27 12:37 | -33.67780 | 115.40753 | 64 ft | 0 kts | 205° |
| 2026-04-27 12:38 | -33.67932 | 115.40667 | 58 ft | 59 kts | 205° |
| 2026-04-27 12:38 | -33.68513 | 115.40333 | 63 ft | 122 kts | 205° |
| 2026-04-27 12:39 | -33.69410 | 115.39830 | 252 ft | 150 kts | 205° |
| 2026-04-27 12:39 | -33.70345 | 115.39293 | 917 ft | 148 kts | 205° |
| 2026-04-27 12:39 | -33.71257 | 115.38742 | 1601 ft | 145 kts | 205° |
| 2026-04-27 12:39 | -33.72165 | 115.38161 | 2130 ft | 155 kts | 206° |
| 2026-04-27 12:40 | -33.73139 | 115.37507 | 2632 ft | 165 kts | 207° |
| 2026-04-27 12:40 | -33.74172 | 115.36781 | 3131 ft | 182 kts | 208° |
| 2026-04-27 12:40 | -33.75333 | 115.35948 | 3519 ft | 209 kts | 207° |
| 2026-04-27 12:40 | -33.76695 | 115.35047 | 4018 ft | 237 kts | 206° |
| 2026-04-27 12:41 | -33.78192 | 115.34034 | 4851 ft | 255 kts | 211° |
| 2026-04-27 12:41 | -33.79538 | 115.32566 | 5719 ft | 270 kts | 235° |
| 2026-04-27 12:41 | -33.80077 | 115.30443 | 6896 ft | 271 kts | 271° |
| 2026-04-27 12:41 | -33.79446 | 115.28347 | 8068 ft | 271 kts | 308° |
| 2026-04-27 12:42 | -33.77932 | 115.26954 | 8923 ft | 288 kts | 335° |
| 2026-04-27 12:42 | -33.75968 | 115.26337 | 9894 ft | 291 kts | 351° |
| 2026-04-27 12:42 | -33.73998 | 115.26036 | 11244 ft | 280 kts | 352° |
| 2026-04-27 12:42 | -33.72079 | 115.25729 | 12320 ft | 283 kts | 346° |
| 2026-04-27 12:43 | -33.70089 | 115.25127 | 12795 ft | 306 kts | 341° |
| 2026-04-27 12:43 | -33.67975 | 115.24460 | 13190 ft | 331 kts | 348° |
| 2026-04-27 12:43 | -33.65552 | 115.24406 | 13610 ft | 356 kts | 6° |
| 2026-04-27 12:43 | -33.63141 | 115.25237 | 14329 ft | 368 kts | 19° |
| 2026-04-27 12:44 | -33.60789 | 115.26358 | 14602 ft | 368 kts | 19° |
| 2026-04-27 12:44 | -33.58377 | 115.27522 | 14805 ft | 369 kts | 19° |
| 2026-04-27 12:44 | -33.55998 | 115.28668 | 14957 ft | 369 kts | 19° |
| 2026-04-27 12:44 | -33.53611 | 115.29813 | 15065 ft | 370 kts | 19° |
| 2026-04-27 12:45 | -33.51218 | 115.30956 | 15103 ft | 370 kts | 19° |
| 2026-04-27 12:45 | -33.48820 | 115.32100 | 15108 ft | 370 kts | 19° |
| 2026-04-27 12:45 | -33.46430 | 115.33238 | 15107 ft | 370 kts | 19° |
| 2026-04-27 12:45 | -33.44074 | 115.34359 | 15106 ft | 370 kts | 19° |
| 2026-04-27 12:46 | -33.41677 | 115.35498 | 15109 ft | 370 kts | 19° |
| 2026-04-27 12:46 | -33.39291 | 115.36631 | 15104 ft | 369 kts | 19° |
| 2026-04-27 12:46 | -33.36904 | 115.37764 | 15107 ft | 370 kts | 19° |
| 2026-04-27 12:46 | -33.34512 | 115.38899 | 15108 ft | 370 kts | 19° |
| 2026-04-27 12:47 | -33.32124 | 115.40031 | 15108 ft | 370 kts | 19° |
| 2026-04-27 12:47 | -33.29733 | 115.41164 | 15110 ft | 369 kts | 19° |
| 2026-04-27 12:47 | -33.27341 | 115.42297 | 15111 ft | 370 kts | 19° |
| 2026-04-27 12:47 | -33.24951 | 115.43429 | 15110 ft | 369 kts | 19° |
| 2026-04-27 12:48 | -33.22563 | 115.44559 | 15112 ft | 369 kts | 19° |
| 2026-04-27 12:48 | -33.20176 | 115.45688 | 15109 ft | 369 kts | 19° |
| 2026-04-27 12:48 | -33.17779 | 115.46799 | 15103 ft | 368 kts | 15° |
| 2026-04-27 12:48 | -33.15280 | 115.47283 | 15111 ft | 363 kts | 359° |
| 2026-04-27 12:49 | -33.12763 | 115.47401 | 15109 ft | 363 kts | 359° |
| 2026-04-27 12:49 | -33.10238 | 115.47505 | 15107 ft | 362 kts | 359° |
| 2026-04-27 12:49 | -33.07719 | 115.47609 | 15106 ft | 362 kts | 359° |
| 2026-04-27 12:49 | -33.05199 | 115.47715 | 15108 ft | 362 kts | 359° |
| 2026-04-27 12:50 | -33.02672 | 115.47824 | 15106 ft | 362 kts | 359° |
| 2026-04-27 12:50 | -33.00155 | 115.47933 | 15104 ft | 362 kts | 359° |
| 2026-04-27 12:50 | -32.97642 | 115.48044 | 15106 ft | 362 kts | 359° |
| 2026-04-27 12:50 | -32.95118 | 115.48155 | 15103 ft | 362 kts | 359° |
| 2026-04-27 12:51 | -32.92607 | 115.48265 | 15105 ft | 362 kts | 359° |
| 2026-04-27 12:51 | -32.90090 | 115.48375 | 15104 ft | 362 kts | 359° |
| 2026-04-27 12:51 | -32.87573 | 115.48485 | 15102 ft | 361 kts | 359° |
| 2026-04-27 12:51 | -32.85077 | 115.48849 | 15103 ft | 366 kts | 13° |
| 2026-04-27 12:52 | -32.82680 | 115.49940 | 15099 ft | 368 kts | 15° |
| 2026-04-27 12:52 | -32.80196 | 115.50427 | 15103 ft | 361 kts | 358° |
| 2026-04-27 12:52 | -32.77690 | 115.50497 | 15098 ft | 360 kts | 358° |
| 2026-04-27 12:52 | -32.75188 | 115.50553 | 15100 ft | 360 kts | 358° |
| 2026-04-27 12:53 | -32.70180 | 115.50670 | 15096 ft | 359 kts | 358° |
| 2026-04-27 12:53 | -32.67681 | 115.50733 | 15098 ft | 359 kts | 358° |
| 2026-04-27 12:53 | -32.65184 | 115.50797 | 15094 ft | 359 kts | 358° |
| 2026-04-27 12:54 | -32.62689 | 115.50863 | 15094 ft | 359 kts | 358° |
| 2026-04-27 12:54 | -32.60221 | 115.50928 | 15094 ft | 359 kts | 358° |
| 2026-04-27 12:54 | -32.57724 | 115.50994 | 15094 ft | 359 kts | 358° |
| 2026-04-27 12:54 | -32.55232 | 115.51059 | 15095 ft | 358 kts | 358° |
| 2026-04-27 12:55 | -32.52745 | 115.51125 | 15092 ft | 358 kts | 357° |
| 2026-04-27 12:55 | -32.50254 | 115.51190 | 15092 ft | 358 kts | 357° |
| 2026-04-27 12:55 | -32.48572 | 115.51235 | 15092 ft | 358 kts | 357° |
| 2026-04-27 12:55 | -32.45270 | 115.51321 | 15088 ft | 357 kts | 357° |
| 2026-04-27 12:56 | -32.42788 | 115.51386 | 15088 ft | 357 kts | 357° |
| 2026-04-27 12:56 | -32.40305 | 115.51452 | 15085 ft | 357 kts | 357° |
| 2026-04-27 12:56 | -32.38619 | 115.51496 | 15092 ft | 357 kts | 357° |
| 2026-04-27 12:56 | -32.36140 | 115.51560 | 15086 ft | 357 kts | 357° |
| 2026-04-27 12:57 | -32.33689 | 115.51625 | 15058 ft | 356 kts | 357° |
| 2026-04-27 12:57 | -32.31222 | 115.51690 | 14761 ft | 354 kts | 357° |
| 2026-04-27 12:57 | -32.28755 | 115.51754 | 14275 ft | 353 kts | 357° |
| 2026-04-27 12:57 | -32.26299 | 115.51818 | 13673 ft | 353 kts | 357° |
| 2026-04-27 12:58 | -32.23855 | 115.51881 | 13101 ft | 351 kts | 358° |
| 2026-04-27 12:58 | -32.21421 | 115.51943 | 12525 ft | 348 kts | 358° |
| 2026-04-27 12:58 | -32.19014 | 115.52004 | 11966 ft | 345 kts | 358° |
| 2026-04-27 12:58 | -32.16587 | 115.52065 | 11412 ft | 343 kts | 358° |
| 2026-04-27 12:59 | -32.14235 | 115.52124 | 10868 ft | 341 kts | 359° |
| 2026-04-27 12:59 | -32.11888 | 115.52186 | 10540 ft | 332 kts | 359° |
| 2026-04-27 12:59 | -32.09630 | 115.52247 | 10403 ft | 318 kts | 359° |
| 2026-04-27 12:59 | -32.07469 | 115.52306 | 10278 ft | 304 kts | 359° |
| 2026-04-27 13:00 | -32.05403 | 115.52361 | 10137 ft | 291 kts | 358° |
| 2026-04-27 13:00 | -32.03391 | 115.52413 | 9780 ft | 288 kts | 358° |
| 2026-04-27 13:00 | -32.01393 | 115.52464 | 9353 ft | 286 kts | 358° |
| 2026-04-27 13:00 | -31.99413 | 115.52513 | 8952 ft | 284 kts | 359° |
| 2026-04-27 13:01 | -31.97439 | 115.52563 | 8545 ft | 282 kts | 359° |
| 2026-04-27 13:01 | -31.95483 | 115.52613 | 8147 ft | 281 kts | 359° |
| 2026-04-27 13:01 | -31.93532 | 115.52663 | 7756 ft | 280 kts | 359° |
| 2026-04-27 13:01 | -31.91594 | 115.52711 | 7354 ft | 279 kts | 359° |
| 2026-04-27 13:02 | -31.89680 | 115.52937 | 6969 ft | 278 kts | 16° |
| 2026-04-27 13:02 | -31.88005 | 115.54055 | 6588 ft | 279 kts | 43° |
| 2026-04-27 13:02 | -31.86936 | 115.55925 | 6189 ft | 278 kts | 70° |
| 2026-04-27 13:02 | -31.86623 | 115.58159 | 5780 ft | 277 kts | 87° |
| 2026-04-27 13:03 | -31.86583 | 115.60412 | 5373 ft | 276 kts | 90° |
| 2026-04-27 13:03 | -31.86570 | 115.62637 | 5014 ft | 274 kts | 89° |
| 2026-04-27 13:03 | -31.86531 | 115.64899 | 4636 ft | 273 kts | 88° |
| 2026-04-27 13:03 | -31.86463 | 115.67114 | 4296 ft | 270 kts | 88° |
| 2026-04-27 13:04 | -31.86377 | 115.69322 | 3935 ft | 268 kts | 88° |
| 2026-04-27 13:04 | -31.86282 | 115.71507 | 3582 ft | 266 kts | 88° |
| 2026-04-27 13:04 | -31.86185 | 115.73661 | 3278 ft | 263 kts | 88° |
| 2026-04-27 13:04 | -31.86089 | 115.75757 | 3090 ft | 255 kts | 88° |
| 2026-04-27 13:05 | -31.85994 | 115.77842 | 3020 ft | 251 kts | 88° |
| 2026-04-27 13:05 | -31.85895 | 115.79824 | 3017 ft | 236 kts | 84° |
| 2026-04-27 13:05 | -31.85378 | 115.81580 | 3019 ft | 223 kts | 57° |
| 2026-04-27 13:05 | -31.84316 | 115.82901 | 3024 ft | 227 kts | 43° |
| 2026-04-27 13:06 | -31.83219 | 115.84206 | 3000 ft | 222 kts | 49° |
| 2026-04-27 13:06 | -31.82272 | 115.85608 | 2998 ft | 214 kts | 55° |
| 2026-04-27 13:06 | -31.81483 | 115.87060 | 2863 ft | 210 kts | 61° |
| 2026-04-27 13:06 | -31.80830 | 115.88577 | 2795 ft | 208 kts | 66° |
| 2026-04-27 13:07 | -31.80294 | 115.90141 | 2643 ft | 205 kts | 72° |
| 2026-04-27 13:07 | -31.79894 | 115.91718 | 2533 ft | 196 kts | 77° |
| 2026-04-27 13:07 | -31.79633 | 115.93265 | 2507 ft | 195 kts | 82° |
| 2026-04-27 13:07 | -31.79490 | 115.94855 | 2497 ft | 194 kts | 88° |
| 2026-04-27 13:08 | -31.79472 | 115.96438 | 2499 ft | 194 kts | 92° |
| 2026-04-27 13:08 | -31.79595 | 115.98013 | 2492 ft | 193 kts | 108° |
| 2026-04-27 13:08 | -31.80350 | 115.99238 | 2421 ft | 182 kts | 147° |
| 2026-04-27 13:08 | -31.81490 | 115.99737 | 2297 ft | 172 kts | 172° |
| 2026-04-27 13:09 | -31.82659 | 115.99725 | 2097 ft | 166 kts | 187° |
| 2026-04-27 13:09 | -31.83765 | 115.99490 | 1888 ft | 156 kts | 191° |
| 2026-04-27 13:09 | -31.84814 | 115.99201 | 1692 ft | 156 kts | 192° |
| 2026-04-27 13:09 | -31.85849 | 115.98905 | 1475 ft | 151 kts | 192° |
| 2026-04-27 13:10 | -31.86827 | 115.98619 | 1289 ft | 138 kts | 193° |
| 2026-04-27 13:10 | -31.87717 | 115.98359 | 1105 ft | 126 kts | 194° |
| 2026-04-27 13:10 | -31.88543 | 115.98117 | 944 ft | 122 kts | 194° |
| 2026-04-27 13:10 | -31.89374 | 115.97871 | 799 ft | 123 kts | 195° |
| 2026-04-27 13:11 | -31.90193 | 115.97629 | 632 ft | 121 kts | 194° |
| 2026-04-27 13:11 | -31.91005 | 115.97382 | 465 ft | 122 kts | 194° |
| 2026-04-27 13:11 | -31.91830 | 115.97145 | 299 ft | 120 kts | 194° |
| 2026-04-27 13:11 | -31.92640 | 115.96910 | 115 ft | 119 kts | 194° |
| 2026-04-27 13:12 | -31.93417 | 115.96683 | 53 ft | 99 kts | 194° |
| 2026-04-27 13:12 | -31.93887 | 115.96546 | 62 ft | 41 kts | 193° |
| 2026-04-27 13:12 | -31.94028 | 115.96505 | 62 ft | 19 kts | 194° |
| 2026-04-27 13:12 | -31.94084 | 115.96488 | 65 ft | 2 kts | 192° |
| 2026-04-27 13:13 | -31.94121 | 115.96507 | 61 ft | 9 kts | 115° |
| 2026-04-27 13:13 | -31.94099 | 115.96578 | 63 ft | 9 kts | 59° |
| 2026-04-27 13:13 | -31.94057 | 115.96661 | 63 ft | 14 kts | 58° |
| 2026-04-27 13:13 | -31.94001 | 115.96769 | 60 ft | 16 kts | 59° |
| 2026-04-27 13:14 | -31.94009 | 115.96857 | 63 ft | 13 kts | 160° |
| 2026-04-27 13:14 | -31.94075 | 115.96844 | 64 ft | 8 kts | 195° |
| 2026-04-27 13:14 | -31.94145 | 115.96824 | 62 ft | 12 kts | 193° |
| 2026-04-27 13:14 | -31.94189 | 115.96856 | 57 ft | 8 kts | 105° |
| 2026-04-27 13:15 | -31.94204 | 115.96928 | 55 ft | 9 kts | 102° |
| 2026-04-27 13:15 | -31.94177 | 115.96960 | 57 ft | 7 kts | 12° |
| 2026-04-27 13:15 | -31.94136 | 115.96966 | 59 ft | 1 kts | 6° |
| 2026-04-27 13:15 | -31.94129 | 115.96967 | 63 ft | 0 kts | 5° |